Latest Weather Observations for Williamson

IDQ60801

Issued at 12:02 am EST Wednesday 1 March 2017 (issued every 30 minutes, with the page automatically refreshed every 10 minutes)

About weather observations | Map of weather stations | Latest weather observations for QLD | Other Formats
Station Details ID: 033195 Name: WILLIAMSON Lat: -22.47 Lon: 150.18 Height: 27.6 m
Data from the previous 72 hours. | See also: Recent months at Williamson
Date/Time
EST
Temp
°C
App
Temp
°C
Dew
Point
°C
Rel
Hum
%
Delta-T
°C
Wind Press
QNH
hPa
Press
MSL
hPa
Rain since
9am
mm
Dir  Spd
km/h
Gust
km/h
Spd
kts
Gust
kts
28/11:30pm 25.4 27.8 20.9 76 3.0 ESE 9 15 5 8 1013.7 1013.5 0.0
28/11:00pm 25.5 28.0 21.0 76 3.0 ENE 9 13 5 7 1013.8 1013.6 0.0
28/10:30pm 25.6 27.9 20.6 74 3.3 E 9 13 5 7 1014.0 1013.8 0.0
28/10:00pm 25.8 28.5 20.6 73 3.4 E 7 11 4 6 1014.1 1013.9 0.0
28/09:30pm 26.0 28.7 20.6 72 3.5 E 7 13 4 7 1014.1 1013.9 0.0
28/09:00pm 26.1 28.1 20.7 72 3.5 E 11 19 6 10 1014.0 1013.8 0.0
28/08:30pm 26.3 28.2 20.6 71 3.7 E 11 19 6 10 1013.8 1013.6 0.0
28/08:00pm 26.6 28.2 20.7 70 3.9 ESE 13 22 7 12 1013.7 1013.5 0.0
28/07:30pm 26.9 28.8 20.5 68 4.2 ESE 11 17 6 9 1013.3 1013.1 0.0
28/07:00pm 27.2 28.7 20.5 67 4.4 E 13 24 7 13 1013.0 1012.8 0.0
28/06:30pm 27.6 28.8 19.9 63 5.0 E 13 20 7 11 1012.6 1012.4 0.0
28/06:00pm 28.2 29.1 20.0 61 5.4 ENE 15 28 8 15 1012.1 1011.9 0.0
28/05:30pm 28.4 28.8 19.1 57 6.0 ENE 15 26 8 14 1012.0 1011.8 0.0
28/05:00pm 28.9 29.3 18.9 54 6.5 ENE 15 26 8 14 1011.8 1011.6 0.0
28/04:30pm 29.1 29.2 19.1 54 6.5 ENE 17 32 9 17 1011.6 1011.4 0.0
28/04:00pm 29.7 29.6 18.8 52 7.1 E 17 32 9 17 1011.6 1011.4 0.0
28/03:30pm 29.9 29.4 19.0 52 7.1 E 20 32 11 17 1011.6 1011.4 0.0
28/03:00pm 30.3 30.5 19.3 51 7.2 E 17 28 9 15 1011.8 1011.6 0.0
28/02:30pm 30.4 30.3 18.8 50 7.5 E 17 30 9 16 1012.2 1012.0 0.0
28/02:00pm 29.9 30.5 18.7 51 7.2 E 13 28 7 15 1012.3 1012.1 0.0
28/01:30pm 28.9 28.8 18.7 54 6.6 E 17 24 9 13 1012.6 1012.4 0.0
28/01:00pm 28.6 28.1 19.0 56 6.2 ESE 20 39 11 21 1013.0 1012.8 0.0
28/12:30pm 30.2 30.2 20.2 55 6.6 E 20 33 11 18 1013.0 1012.8 0.0
28/12:00pm 30.0 28.7 18.1 49 7.6 E 22 39 12 21 1013.0 1012.8 0.0
28/11:30am 30.9 31.1 19.3 50 7.6 E 17 28 9 15 1013.0 1012.8 0.0
28/11:00am 31.0 30.4 18.4 47 8.1 E 19 30 10 16 1013.2 1013.0 0.0
28/10:30am 30.6 31.5 19.3 51 7.4 ENE 13 28 7 15 1013.4 1013.2 0.0
28/10:00am 29.1 30.9 20.3 59 5.8 ENE 11 22 6 12 1013.7 1013.5 0.0
28/09:30am 29.1 29.8 18.8 53 6.6 ESE 13 24 7 13 1014.0 1013.8 0.0
28/09:00am 29.9 30.4 19.3 53 6.9 ESE 15 24 8 13 1013.9 1013.7 0.0
28/08:30am 28.8 28.9 19.1 55 6.3 ESE 17 28 9 15 1014.0 1013.8 0.0
28/08:00am 27.3 29.1 19.6 62 5.0 SSE 9 13 5 7 1013.9 1013.7 0.0
28/07:30am 25.1 26.7 19.9 73 3.4 SSW 11 15 6 8 1013.8 1013.6 0.0
28/07:00am 23.8 26.0 19.5 77 2.8 S 7 13 4 7 1013.6 1013.4 0.0
28/06:30am 22.4 24.2 19.6 84 1.8 SSW 9 13 5 7 1013.5 1013.3 0.0
28/06:00am 22.2 23.6 19.6 85 1.7 S 11 15 6 8 1013.2 1013.0 0.0
28/05:30am 22.5 24.7 19.1 81 2.2 S 6 9 3 5 1013.1 1012.9 0.0
28/05:00am 23.3 25.5 19.2 78 2.6 SSE 6 9 3 5 1012.7 1012.5 0.0
28/04:30am 23.6 25.5 19.7 79 2.5 SSE 9 13 5 7 1012.6 1012.4 0.0
28/04:00am 23.2 25.8 19.2 78 2.5 SSE 4 7 2 4 1012.7 1012.5 0.0
28/03:30am 23.6 25.8 19.3 77 2.7 SE 6 9 3 5 1012.6 1012.4 0.0
28/03:00am 23.9 26.3 19.6 77 2.8 SE 6 7 3 4 1012.7 1012.5 0.0
28/02:30am 24.3 26.7 19.6 75 3.0 SE 6 9 3 5 1012.8 1012.6 0.0
28/02:00am 24.6 26.7 19.4 73 3.3 SSE 7 11 4 6 1013.2 1013.0 0.0
28/01:30am 25.3 27.3 19.9 72 3.5 SE 9 13 5 7 1013.5 1013.3 0.0
28/01:00am 25.5 27.3 20.3 73 3.4 ESE 11 19 6 10 1013.7 1013.5 0.0
28/12:30am 25.7 27.9 20.3 72 3.5 ESE 9 19 5 10 1013.8 1013.6 0.0
28/12:00am 25.9 27.5 20.0 70 3.8 ESE 11 17 6 9 1014.0 1013.8 0.0
 
Date/Time
EST
Temp
°C
App
Temp
°C
Dew
Point
°C
Rel
Hum
%
Delta-T
°C
Wind Press
QNH
hPa
Press
MSL
hPa
Rain since
9am
mm
Dir  Spd
km/h
Gust
km/h
Spd
kts
Gust
kts
27/11:30pm 25.8 27.4 19.9 70 3.8 E 11 19 6 10 1014.2 1014.0 0.0
27/11:00pm 25.7 27.9 19.6 69 3.9 ESE 7 15 4 8 1014.4 1014.2 0.0
27/10:30pm 25.9 27.3 19.5 68 4.1 ESE 11 20 6 11 1014.4 1014.2 0.0
27/10:00pm 26.1 27.1 19.5 67 4.3 ESE 13 24 7 13 1014.2 1014.0 0.0
27/09:30pm 26.2 26.6 19.8 68 4.2 ESE 17 28 9 15 1014.1 1013.9 0.0
27/09:00pm 26.1 27.2 20.4 71 3.7 ESE 15 24 8 13 1013.9 1013.7 0.0
27/08:30pm 25.8 27.0 19.9 70 3.8 ESE 13 20 7 11 1013.7 1013.5 0.0
27/08:00pm 25.9 27.3 19.5 68 4.1 ESE 11 20 6 11 1013.5 1013.3 0.0
27/07:30pm 26.1 27.3 19.0 65 4.6 E 11 19 6 10 1013.3 1013.1 0.0
27/07:00pm 26.5 27.7 19.1 64 4.8 E 11 17 6 9 1012.7 1012.5 0.0
27/06:30pm 27.1 27.4 18.7 60 5.4 E 15 24 8 13 1012.4 1012.2 0.0
27/06:00pm 27.9 27.7 18.6 57 6.0 E 17 32 9 17 1012.0 1011.8 0.0
27/05:30pm 29.0 29.3 18.7 53 6.6 E 15 28 8 15 1011.6 1011.4 0.0
27/05:00pm 29.6 28.8 18.1 50 7.4 E 19 33 10 18 1011.3 1011.1 0.0
27/04:30pm 29.9 29.4 19.0 52 7.1 E 20 37 11 20 1011.0 1010.8 0.0
27/04:00pm 29.1 28.2 19.1 54 6.5 E 22 41 12 22 1010.9 1010.7 0.0
27/03:30pm 30.8 30.1 19.5 51 7.4 ENE 22 39 12 21 1010.8 1010.6 0.0
27/03:00pm 30.0 29.8 18.4 49 7.5 ENE 17 35 9 19 1010.9 1010.7 0.0
27/02:30pm 31.3 30.4 18.3 46 8.4 E 20 37 11 20 1011.0 1010.8 0.0
27/02:00pm 33.1 32.2 16.9 38 10.3 ESE 17 30 9 16 1011.4 1011.2 0.0
27/01:30pm 31.4 30.6 18.0 44 8.6 ENE 19 33 10 18 1011.7 1011.5 0.0
27/01:00pm 30.7 30.0 17.4 45 8.5 ENE 17 28 9 15 1012.3 1012.1 0.0
27/12:30pm 31.8 31.1 17.3 42 9.2 E 17 24 9 13 1012.8 1012.6 0.0
27/12:00pm 30.3 29.8 17.7 46 8.0 ENE 17 26 9 14 1013.2 1013.0 0.0
27/11:30am 29.4 28.4 17.9 50 7.3 E 20 35 11 19 1013.8 1013.6 0.0
27/11:00am 31.1 30.6 17.8 45 8.5 ESE 17 22 9 12 1013.9 1013.7 0.0
27/10:30am 30.1 29.6 17.9 48 7.8 ESE 17 28 9 15 1014.3 1014.1 0.0
27/10:00am 29.8 29.5 17.3 47 7.9 SE 15 28 8 15 1014.4 1014.2 0.0
27/09:30am 28.1 27.8 18.2 55 6.3 SE 17 26 9 14 1014.2 1014.0 0.0
27/09:00am 28.3 28.7 19.0 57 6.0 SSE 15 24 8 13 1014.2 1014.0 0.0
27/08:30am 27.6 28.0 19.1 59 5.5 SSE 15 20 8 11 1013.8 1013.6 0.0
27/08:00am 26.3 27.0 18.9 63 4.7 S 13 20 7 11 1013.9 1013.7 0.0
27/07:30am 25.7 26.5 19.1 67 4.2 S 13 20 7 11 1014.1 1013.9 0.0
27/07:00am 24.3 25.6 19.4 74 3.1 S 11 17 6 9 1013.8 1013.6 0.0
27/06:30am 22.8 25.2 19.6 82 2.0 SSE 6 9 3 5 1013.4 1013.2 0.0
27/06:00am 22.7 24.1 19.5 82 2.0 S 11 17 6 9 1013.3 1013.1 0.0
27/05:30am 22.7 24.9 19.5 82 2.0 S 7 9 4 5 1013.3 1013.1 0.0
27/05:00am 22.5 24.6 19.3 82 2.0 S 7 9 4 5 1012.9 1012.7 0.0
27/04:30am 23.1 26.1 19.3 79 2.4 E 2 6 1 3 1012.6 1012.4 0.0
27/04:00am 23.4 25.6 19.3 78 2.6 SSE 6 9 3 5 1012.8 1012.6 0.0
27/03:30am 23.8 25.5 19.3 76 2.9 SSE 9 13 5 7 1012.9 1012.7 0.0
27/03:00am 24.0 25.3 19.3 75 3.0 S 11 15 6 8 1012.9 1012.7 0.0
27/02:30am 24.4 26.5 19.0 72 3.4 SSE 6 11 3 6 1013.0 1012.8 0.0
27/02:00am 25.2 26.7 18.9 68 4.0 SSE 9 13 5 7 1013.0 1012.8 0.0
27/01:30am 25.8 27.4 19.2 67 4.2 SE 9 15 5 8 1013.2 1013.0 0.0
27/01:00am 26.0 27.7 19.4 67 4.3 ESE 9 22 5 12 1013.4 1013.2 0.0
27/12:30am 25.9 28.0 19.3 67 4.2 SE 7 13 4 7 1013.8 1013.6 0.0
27/12:00am 26.0 27.3 19.4 67 4.3 ESE 11 22 6 12 1013.9 1013.7 0.0
 
Date/Time
EST
Temp
°C
App
Temp
°C
Dew
Point
°C
Rel
Hum
%
Delta-T
°C
Wind Press
QNH
hPa
Press
MSL
hPa
Rain since
9am
mm
Dir  Spd
km/h
Gust
km/h
Spd
kts
Gust
kts
26/11:30pm 26.2 27.6 19.6 67 4.3 ESE 11 17 6 9 1013.9 1013.7 0.0
26/11:00pm 26.3 27.1 19.9 68 4.2 ESE 15 28 8 15 1013.9 1013.7 0.0
26/10:30pm 26.3 27.5 19.9 68 4.2 ESE 13 20 7 11 1013.3 1013.1 0.0
26/10:00pm 26.3 27.5 19.9 68 4.2 E 13 24 7 13 1013.0 1012.8 0.0
26/09:30pm 26.4 27.8 20.3 69 4.0 ESE 13 24 7 13 1013.4 1013.2 0.0
26/09:00pm 26.4 27.4 20.3 69 4.0 ESE 15 24 8 13 1013.4 1013.2 0.0
26/08:30pm 26.5 28.3 20.3 68 4.1 E 11 26 6 14 1013.2 1013.0 0.0
26/08:00pm 26.5 27.7 19.9 67 4.3 ESE 13 24 7 13 1012.8 1012.6 0.0
26/07:30pm 26.7 27.8 19.6 65 4.6 E 13 22 7 12 1012.4 1012.2 0.0
26/07:00pm 26.9 27.9 19.5 64 4.8 E 13 22 7 12 1011.7 1011.5 0.0
26/06:30pm 27.4 27.4 17.3 54 6.3 E 13 26 7 14 1011.5 1011.3 0.0
26/06:00pm 28.2 27.8 17.1 51 7.0 E 15 26 8 14 1011.1 1010.9 0.0
26/05:30pm 28.9 28.7 17.7 50 7.1 ENE 15 30 8 16 1010.5 1010.3 0.0
26/05:00pm 30.1 29.1 16.5 44 8.5 E 17 26 9 14 1010.4 1010.2 0.0
26/04:30pm 31.0 29.7 17.3 43 8.7 E 20 35 11 19 1010.2 1010.0 0.0
26/04:00pm 30.7 29.9 18.1 47 8.1 E 19 35 10 19 1010.1 1009.9 0.0
26/03:30pm 31.1 30.7 18.8 48 8.0 E 19 35 10 19 1010.0 1009.8 0.0
26/03:00pm 31.8 30.7 18.7 45 8.5 E 22 35 12 19 1010.0 1009.8 0.0
26/02:30pm 32.3 31.7 18.8 44 8.8 ENE 20 37 11 20 1010.0 1009.8 0.0
26/02:00pm 32.7 31.9 18.1 42 9.4 ENE 19 33 10 18 1010.2 1010.0 0.0
26/01:30pm 32.3 31.9 18.8 44 8.8 ENE 19 32 10 17 1010.7 1010.5 0.0
26/01:00pm 31.9 31.6 17.4 42 9.3 E 15 26 8 14 1011.0 1010.8 0.0
26/12:30pm 32.4 31.1 16.7 39 9.9 E 19 32 10 17 1011.4 1011.2 0.0
26/12:00pm 31.8 31.1 15.3 37 10.2 ESE 13 26 7 14 1012.0 1011.8 0.0
26/11:30am 31.9 31.7 16.6 39 9.7 SSE 13 22 7 12 1012.2 1012.0 0.0
26/11:00am 30.8 30.8 17.1 43 8.7 ESE 13 24 7 13 1012.5 1012.3 0.0
26/10:30am 30.1 30.9 17.2 46 8.2 ESE 9 19 5 10 1012.9 1012.7 0.0
26/10:00am 31.0 31.0 18.0 45 8.3 ESE 15 32 8 17 1013.3 1013.1 0.0
26/09:30am 30.3 30.4 17.4 46 8.2 SE 13 33 7 18 1013.3 1013.1 0.0
26/09:00am 28.4 27.6 17.9 53 6.7 ESE 19 28 10 15 1013.6 1013.4 0.0
26/08:30am 28.0 27.1 17.8 54 6.5 SE 19 28 10 15 1013.5 1013.3 0.0
26/08:00am 27.8 27.1 17.3 52 6.6 SE 17 26 9 14 1013.3 1013.1 0.0
26/07:30am 26.7 27.7 17.8 58 5.6 SSW 9 11 5 6 1013.2 1013.0 0.0
26/07:00am 24.7 25.9 18.2 67 4.1 S 9 11 5 6 1012.9 1012.7 0.0
26/06:30am 22.2 23.8 18.2 78 2.5 SSW 7 7 4 4 1012.6 1012.4 0.0
26/06:00am 22.2 24.8 17.6 75 2.8 CALM 0 2 0 1 1012.1 1011.9 0.0
26/05:30am 23.3 24.2 17.5 70 3.6 S 9 15 5 8 1011.9 1011.7 0.0
26/05:00am 24.9 26.0 17.9 65 4.4 ESE 9 19 5 10 1011.6 1011.4 0.0
26/04:30am 24.9 26.0 18.1 66 4.3 SE 9 15 5 8 1011.4 1011.2 0.0
26/04:00am 25.0 26.6 18.2 66 4.3 ESE 7 15 4 8 1011.2 1011.0 0.0
26/03:30am 25.3 26.5 18.2 64 4.5 ESE 9 20 5 11 1011.1 1010.9 0.0
26/03:00am 25.3 26.2 18.5 66 4.3 SE 11 22 6 12 1011.1 1010.9 0.0
26/02:30am 25.4 27.1 19.3 69 3.9 SE 9 15 5 8 1011.2 1011.0 0.0
26/02:00am 25.3 27.3 19.2 69 3.9 ESE 7 11 4 6 1011.0 1010.8 0.0
26/01:30am 25.7 27.0 19.3 67 4.1 E 11 19 6 10 1011.4 1011.2 0.0
26/01:00am 25.7 27.6 19.8 70 3.8 ESE 9 17 5 9 1011.9 1011.7 0.0
26/12:30am 25.9 27.9 20.0 70 3.8 ESE 9 17 5 9 1012.4 1012.2 0.0

Other Formats:

Comma delimited format used in spreadsheet applications
http://www.bom.gov.au/fwo/IDQ60801/IDQ60801.95370.axf

JavaScript Object Notation format (JSON) in row-major order
http://www.bom.gov.au/fwo/IDQ60801/IDQ60801.95370.json